sensor_id;sensor_type;location;lat;lon;timestamp;P1;durP1;ratioP1;P2;durP2;ratioP2
52978;SDS011;63430;53.186;6.598;2024-01-30T00:01:36;2.80;;;2.60;;
52978;SDS011;63430;53.186;6.598;2024-01-30T00:03:39;2.80;;;2.60;;
52978;SDS011;63430;53.186;6.598;2024-01-30T00:05:42;3.10;;;2.80;;
52978;SDS011;63430;53.186;6.598;2024-01-30T00:07:46;2.60;;;2.40;;
52978;SDS011;63430;53.186;6.598;2024-01-30T00:09:52;2.53;;;2.33;;
52978;SDS011;63430;53.186;6.598;2024-01-30T00:11:55;2.92;;;2.72;;
52978;SDS011;63430;53.186;6.598;2024-01-30T00:13:58;3.35;;;3.05;;
52978;SDS011;63430;53.186;6.598;2024-01-30T00:16:05;2.95;;;2.70;;
52978;SDS011;63430;53.186;6.598;2024-01-30T00:18:09;3.00;;;2.70;;
52978;SDS011;63430;53.186;6.598;2024-01-30T00:20:32;2.85;;;2.65;;
52978;SDS011;63430;53.186;6.598;2024-01-30T00:22:35;2.88;;;2.67;;
52978;SDS011;63430;53.186;6.598;2024-01-30T00:24:37;3.13;;;2.83;;
52978;SDS011;63430;53.186;6.598;2024-01-30T00:26:42;2.88;;;2.67;;
52978;SDS011;63430;53.186;6.598;2024-01-30T00:28:45;2.60;;;2.40;;
52978;SDS011;63430;53.186;6.598;2024-01-30T00:30:47;2.50;;;2.30;;
52978;SDS011;63430;53.186;6.598;2024-01-30T00:32:50;2.80;;;2.60;;
52978;SDS011;63430;53.186;6.598;2024-01-30T00:34:53;2.80;;;2.60;;
52978;SDS011;63430;53.186;6.598;2024-01-30T00:36:55;2.92;;;2.70;;
52978;SDS011;63430;53.186;6.598;2024-01-30T00:38:58;2.60;;;2.40;;
52978;SDS011;63430;53.186;6.598;2024-01-30T00:41:01;2.83;;;2.63;;
52978;SDS011;63430;53.186;6.598;2024-01-30T00:43:09;2.90;;;2.47;;
52978;SDS011;63430;53.186;6.598;2024-01-30T00:45:12;3.08;;;2.78;;
52978;SDS011;63430;53.186;6.598;2024-01-30T00:47:15;3.00;;;2.75;;
52978;SDS011;63430;53.186;6.598;2024-01-30T00:49:17;3.20;;;2.90;;
52978;SDS011;63430;53.186;6.598;2024-01-30T00:51:20;2.80;;;2.60;;
52978;SDS011;63430;53.186;6.598;2024-01-30T00:53:23;3.20;;;2.90;;
52978;SDS011;63430;53.186;6.598;2024-01-30T00:55:25;3.10;;;2.80;;
52978;SDS011;63430;53.186;6.598;2024-01-30T00:57:28;2.88;;;2.60;;
52978;SDS011;63430;53.186;6.598;2024-01-30T00:59:33;3.10;;;2.80;;
52978;SDS011;63430;53.186;6.598;2024-01-30T01:01:35;2.97;;;2.40;;
52978;SDS011;63430;53.186;6.598;2024-01-30T01:03:38;2.75;;;2.55;;
52978;SDS011;63430;53.186;6.598;2024-01-30T01:05:43;2.80;;;2.60;;
52978;SDS011;63430;53.186;6.598;2024-01-30T01:07:45;3.35;;;2.90;;
52978;SDS011;63430;53.186;6.598;2024-01-30T01:09:49;2.88;;;2.60;;
52978;SDS011;63430;53.186;6.598;2024-01-30T01:11:52;3.60;;;3.30;;
52978;SDS011;63430;53.186;6.598;2024-01-30T01:13:54;2.92;;;2.70;;
52978;SDS011;63430;53.186;6.598;2024-01-30T01:15:59;3.05;;;2.75;;
52978;SDS011;63430;53.186;6.598;2024-01-30T01:18:02;2.65;;;2.45;;
52978;SDS011;63430;53.186;6.598;2024-01-30T01:20:06;3.30;;;3.00;;
52978;SDS011;63430;53.186;6.598;2024-01-30T01:22:10;3.05;;;2.80;;
52978;SDS011;63430;53.186;6.598;2024-01-30T01:24:13;3.42;;;3.13;;
52978;SDS011;63430;53.186;6.598;2024-01-30T01:26:17;3.33;;;3.03;;
52978;SDS011;63430;53.186;6.598;2024-01-30T01:28:20;3.05;;;2.80;;
52978;SDS011;63430;53.186;6.598;2024-01-30T01:30:23;2.95;;;2.72;;
52978;SDS011;63430;53.186;6.598;2024-01-30T01:32:31;2.95;;;2.65;;
52978;SDS011;63430;53.186;6.598;2024-01-30T01:34:34;3.28;;;2.85;;
52978;SDS011;63430;53.186;6.598;2024-01-30T01:36:37;3.08;;;2.78;;
52978;SDS011;63430;53.186;6.598;2024-01-30T01:38:41;3.30;;;3.00;;
52978;SDS011;63430;53.186;6.598;2024-01-30T01:40:44;2.95;;;2.75;;
52978;SDS011;63430;53.186;6.598;2024-01-30T01:42:49;2.72;;;2.53;;
52978;SDS011;63430;53.186;6.598;2024-01-30T01:44:53;3.40;;;3.10;;
52978;SDS011;63430;53.186;6.598;2024-01-30T01:46:56;3.05;;;2.80;;
52978;SDS011;63430;53.186;6.598;2024-01-30T01:49:04;2.95;;;2.75;;
52978;SDS011;63430;53.186;6.598;2024-01-30T01:51:08;3.20;;;2.90;;
52978;SDS011;63430;53.186;6.598;2024-01-30T01:53:12;3.13;;;2.88;;
52978;SDS011;63430;53.186;6.598;2024-01-30T01:55:16;2.80;;;2.50;;
52978;SDS011;63430;53.186;6.598;2024-01-30T01:57:24;3.53;;;3.22;;
52978;SDS011;63430;53.186;6.598;2024-01-30T01:59:27;2.97;;;2.65;;
52978;SDS011;63430;53.186;6.598;2024-01-30T02:01:31;3.33;;;3.03;;
52978;SDS011;63430;53.186;6.598;2024-01-30T02:03:36;3.35;;;3.05;;
52978;SDS011;63430;53.186;6.598;2024-01-30T02:05:43;3.50;;;3.20;;
52978;SDS011;63430;53.186;6.598;2024-01-30T02:07:46;2.83;;;2.63;;
52978;SDS011;63430;53.186;6.598;2024-01-30T02:09:50;3.13;;;2.83;;
52978;SDS011;63430;53.186;6.598;2024-01-30T02:11:53;2.90;;;2.70;;
52978;SDS011;63430;53.186;6.598;2024-01-30T02:13:57;3.45;;;3.15;;
52978;SDS011;63430;53.186;6.598;2024-01-30T02:16:05;2.92;;;2.72;;
52978;SDS011;63430;53.186;6.598;2024-01-30T02:18:08;3.22;;;2.88;;
52978;SDS011;63430;53.186;6.598;2024-01-30T02:20:12;2.97;;;2.72;;
52978;SDS011;63430;53.186;6.598;2024-01-30T02:22:19;3.13;;;2.90;;
52978;SDS011;63430;53.186;6.598;2024-01-30T02:24:23;2.90;;;2.70;;
52978;SDS011;63430;53.186;6.598;2024-01-30T02:26:26;3.13;;;2.83;;
52978;SDS011;63430;53.186;6.598;2024-01-30T02:28:29;3.28;;;2.72;;
52978;SDS011;63430;53.186;6.598;2024-01-30T02:30:33;3.15;;;2.90;;
52978;SDS011;63430;53.186;6.598;2024-01-30T02:32:36;3.53;;;3.17;;
52978;SDS011;63430;53.186;6.598;2024-01-30T02:34:39;3.30;;;3.00;;
52978;SDS011;63430;53.186;6.598;2024-01-30T02:36:43;3.13;;;2.85;;
52978;SDS011;63430;53.186;6.598;2024-01-30T02:38:49;3.30;;;3.00;;
52978;SDS011;63430;53.186;6.598;2024-01-30T02:40:52;2.72;;;2.53;;
52978;SDS011;63430;53.186;6.598;2024-01-30T02:42:56;3.40;;;3.10;;
52978;SDS011;63430;53.186;6.598;2024-01-30T02:45:00;3.20;;;2.90;;
52978;SDS011;63430;53.186;6.598;2024-01-30T02:47:04;3.25;;;2.95;;
52978;SDS011;63430;53.186;6.598;2024-01-30T02:49:07;3.00;;;2.80;;
52978;SDS011;63430;53.186;6.598;2024-01-30T02:51:10;3.05;;;2.75;;
52978;SDS011;63430;53.186;6.598;2024-01-30T02:53:14;2.75;;;2.53;;
52978;SDS011;63430;53.186;6.598;2024-01-30T02:55:20;2.95;;;2.75;;
52978;SDS011;63430;53.186;6.598;2024-01-30T02:57:23;3.35;;;3.05;;
52978;SDS011;63430;53.186;6.598;2024-01-30T02:59:27;3.28;;;2.97;;
52978;SDS011;63430;53.186;6.598;2024-01-30T03:01:30;3.35;;;3.05;;
52978;SDS011;63430;53.186;6.598;2024-01-30T03:03:34;3.45;;;2.80;;
52978;SDS011;63430;53.186;6.598;2024-01-30T03:05:38;2.95;;;2.72;;
52978;SDS011;63430;53.186;6.598;2024-01-30T03:07:41;2.70;;;2.50;;
52978;SDS011;63430;53.186;6.598;2024-01-30T03:09:45;3.03;;;2.72;;
52978;SDS011;63430;53.186;6.598;2024-01-30T03:11:51;2.80;;;2.60;;
52978;SDS011;63430;53.186;6.598;2024-01-30T03:13:54;2.60;;;2.40;;
52978;SDS011;63430;53.186;6.598;2024-01-30T03:15:57;3.20;;;2.90;;
52978;SDS011;63430;53.186;6.598;2024-01-30T03:18:01;3.25;;;2.90;;
52978;SDS011;63430;53.186;6.598;2024-01-30T03:20:06;2.65;;;2.45;;
52978;SDS011;63430;53.186;6.598;2024-01-30T03:22:11;3.20;;;2.90;;
52978;SDS011;63430;53.186;6.598;2024-01-30T03:24:14;2.90;;;2.70;;
52978;SDS011;63430;53.186;6.598;2024-01-30T03:26:18;3.03;;;2.67;;
52978;SDS011;63430;53.186;6.598;2024-01-30T03:28:23;2.75;;;2.55;;
52978;SDS011;63430;53.186;6.598;2024-01-30T03:30:27;3.17;;;2.88;;
52978;SDS011;63430;53.186;6.598;2024-01-30T03:32:30;2.72;;;2.53;;
52978;SDS011;63430;53.186;6.598;2024-01-30T03:34:33;2.80;;;2.60;;
52978;SDS011;63430;53.186;6.598;2024-01-30T03:36:37;3.05;;;2.85;;
52978;SDS011;63430;53.186;6.598;2024-01-30T03:38:40;2.75;;;2.55;;
52978;SDS011;63430;53.186;6.598;2024-01-30T03:40:43;3.13;;;2.83;;
52978;SDS011;63430;53.186;6.598;2024-01-30T03:42:47;3.40;;;2.80;;
52978;SDS011;63430;53.186;6.598;2024-01-30T03:44:53;2.80;;;2.60;;
52978;SDS011;63430;53.186;6.598;2024-01-30T03:46:57;2.88;;;2.67;;
52978;SDS011;63430;53.186;6.598;2024-01-30T03:49:00;2.53;;;2.33;;
52978;SDS011;63430;53.186;6.598;2024-01-30T03:51:04;2.60;;;2.40;;
52978;SDS011;63430;53.186;6.598;2024-01-30T03:53:07;3.20;;;2.90;;
52978;SDS011;63430;53.186;6.598;2024-01-30T03:55:10;2.85;;;2.55;;
52978;SDS011;63430;53.186;6.598;2024-01-30T03:57:14;2.63;;;2.42;;
52978;SDS011;63430;53.186;6.598;2024-01-30T03:59:17;2.80;;;2.60;;
52978;SDS011;63430;53.186;6.598;2024-01-30T04:01:28;3.08;;;2.78;;
52978;SDS011;63430;53.186;6.598;2024-01-30T04:03:32;3.22;;;2.92;;
52978;SDS011;63430;53.186;6.598;2024-01-30T04:05:35;2.92;;;2.72;;
52978;SDS011;63430;53.186;6.598;2024-01-30T04:07:38;2.63;;;2.42;;
52978;SDS011;63430;53.186;6.598;2024-01-30T04:09:42;3.10;;;2.78;;
52978;SDS011;63430;53.186;6.598;2024-01-30T04:11:45;2.63;;;2.42;;
52978;SDS011;63430;53.186;6.598;2024-01-30T04:13:48;2.67;;;2.47;;
52978;SDS011;63430;53.186;6.598;2024-01-30T04:15:52;2.80;;;2.60;;
52978;SDS011;63430;53.186;6.598;2024-01-30T04:17:59;2.55;;;2.35;;
52978;SDS011;63430;53.186;6.598;2024-01-30T04:20:03;2.60;;;2.40;;
52978;SDS011;63430;53.186;6.598;2024-01-30T04:22:08;2.55;;;2.35;;
52978;SDS011;63430;53.186;6.598;2024-01-30T04:24:11;2.45;;;2.22;;
52978;SDS011;63430;53.186;6.598;2024-01-30T04:26:14;2.67;;;2.45;;
52978;SDS011;63430;53.186;6.598;2024-01-30T04:28:18;2.70;;;2.50;;
52978;SDS011;63430;53.186;6.598;2024-01-30T04:30:21;3.10;;;2.80;;
52978;SDS011;63430;53.186;6.598;2024-01-30T04:32:24;2.78;;;2.58;;
52978;SDS011;63430;53.186;6.598;2024-01-30T04:34:30;3.10;;;2.80;;
52978;SDS011;63430;53.186;6.598;2024-01-30T04:36:33;2.90;;;2.35;;
52978;SDS011;63430;53.186;6.598;2024-01-30T04:38:37;2.70;;;2.50;;
52978;SDS011;63430;53.186;6.598;2024-01-30T04:40:40;2.92;;;2.70;;
52978;SDS011;63430;53.186;6.598;2024-01-30T04:42:42;2.67;;;2.47;;
52978;SDS011;63430;53.186;6.598;2024-01-30T04:44:45;2.70;;;2.50;;
52978;SDS011;63430;53.186;6.598;2024-01-30T04:46:48;2.53;;;2.33;;
52978;SDS011;63430;53.186;6.598;2024-01-30T04:48:50;2.53;;;2.33;;
52978;SDS011;63430;53.186;6.598;2024-01-30T04:50:55;2.35;;;2.15;;
52978;SDS011;63430;53.186;6.598;2024-01-30T04:52:58;2.58;;;2.38;;
52978;SDS011;63430;53.186;6.598;2024-01-30T04:55:01;2.90;;;2.70;;
52978;SDS011;63430;53.186;6.598;2024-01-30T04:57:04;2.60;;;2.40;;
52978;SDS011;63430;53.186;6.598;2024-01-30T04:59:10;2.30;;;2.10;;
52978;SDS011;63430;53.186;6.598;2024-01-30T05:01:14;3.05;;;2.53;;
52978;SDS011;63430;53.186;6.598;2024-01-30T05:03:17;2.92;;;2.65;;
52978;SDS011;63430;53.186;6.598;2024-01-30T05:05:20;2.65;;;2.45;;
52978;SDS011;63430;53.186;6.598;2024-01-30T05:07:26;2.53;;;2.33;;
52978;SDS011;63430;53.186;6.598;2024-01-30T05:09:29;2.63;;;2.42;;
52978;SDS011;63430;53.186;6.598;2024-01-30T05:11:36;2.63;;;2.42;;
52978;SDS011;63430;53.186;6.598;2024-01-30T05:13:39;2.58;;;2.38;;
52978;SDS011;63430;53.186;6.598;2024-01-30T05:15:42;3.08;;;2.50;;
52978;SDS011;63430;53.186;6.598;2024-01-30T05:17:44;2.55;;;2.35;;
52978;SDS011;63430;53.186;6.598;2024-01-30T05:19:47;2.47;;;2.28;;
52978;SDS011;63430;53.186;6.598;2024-01-30T05:21:50;2.55;;;2.35;;
52978;SDS011;63430;53.186;6.598;2024-01-30T05:23:55;2.45;;;2.25;;
52978;SDS011;63430;53.186;6.598;2024-01-30T05:25:57;2.42;;;2.22;;
52978;SDS011;63430;53.186;6.598;2024-01-30T05:28:03;2.80;;;2.60;;
52978;SDS011;63430;53.186;6.598;2024-01-30T05:30:06;2.55;;;2.35;;
52978;SDS011;63430;53.186;6.598;2024-01-30T05:32:09;2.60;;;2.40;;
52978;SDS011;63430;53.186;6.598;2024-01-30T05:34:12;2.78;;;2.28;;
52978;SDS011;63430;53.186;6.598;2024-01-30T05:36:15;2.40;;;2.20;;
52978;SDS011;63430;53.186;6.598;2024-01-30T05:38:17;2.53;;;2.33;;
52978;SDS011;63430;53.186;6.598;2024-01-30T05:40:23;2.70;;;2.50;;
52978;SDS011;63430;53.186;6.598;2024-01-30T05:42:26;2.55;;;2.22;;
52978;SDS011;63430;53.186;6.598;2024-01-30T05:44:30;2.30;;;2.10;;
52978;SDS011;63430;53.186;6.598;2024-01-30T05:46:34;2.65;;;2.45;;
52978;SDS011;63430;53.186;6.598;2024-01-30T05:48:38;2.65;;;2.45;;
52978;SDS011;63430;53.186;6.598;2024-01-30T05:50:41;2.53;;;2.33;;
52978;SDS011;63430;53.186;6.598;2024-01-30T05:52:45;3.15;;;2.85;;
52978;SDS011;63430;53.186;6.598;2024-01-30T05:54:48;2.60;;;2.35;;
52978;SDS011;63430;53.186;6.598;2024-01-30T05:56:54;2.50;;;2.30;;
52978;SDS011;63430;53.186;6.598;2024-01-30T05:58:57;2.70;;;2.50;;
52978;SDS011;63430;53.186;6.598;2024-01-30T06:01:01;2.60;;;2.40;;
52978;SDS011;63430;53.186;6.598;2024-01-30T06:03:04;2.90;;;2.70;;
52978;SDS011;63430;53.186;6.598;2024-01-30T06:05:08;2.55;;;2.35;;
52978;SDS011;63430;53.186;6.598;2024-01-30T06:07:11;2.90;;;2.70;;
52978;SDS011;63430;53.186;6.598;2024-01-30T06:09:15;2.72;;;2.53;;
52978;SDS011;63430;53.186;6.598;2024-01-30T06:11:18;2.72;;;2.53;;
52978;SDS011;63430;53.186;6.598;2024-01-30T06:13:24;2.50;;;2.30;;
52978;SDS011;63430;53.186;6.598;2024-01-30T06:15:28;2.77;;;2.57;;
52978;SDS011;63430;53.186;6.598;2024-01-30T06:17:32;2.60;;;2.40;;
52978;SDS011;63430;53.186;6.598;2024-01-30T06:19:35;2.65;;;2.45;;
52978;SDS011;63430;53.186;6.598;2024-01-30T06:21:38;2.42;;;2.22;;
52978;SDS011;63430;53.186;6.598;2024-01-30T06:23:40;2.55;;;2.35;;
52978;SDS011;63430;53.186;6.598;2024-01-30T06:25:43;3.13;;;2.83;;
52978;SDS011;63430;53.186;6.598;2024-01-30T06:27:46;3.00;;;2.78;;
52978;SDS011;63430;53.186;6.598;2024-01-30T06:29:51;2.85;;;2.65;;
52978;SDS011;63430;53.186;6.598;2024-01-30T06:31:53;2.85;;;2.58;;
52978;SDS011;63430;53.186;6.598;2024-01-30T06:33:56;3.17;;;2.55;;
52978;SDS011;63430;53.186;6.598;2024-01-30T06:35:58;2.60;;;2.40;;
52978;SDS011;63430;53.186;6.598;2024-01-30T06:38:01;3.00;;;2.70;;
52978;SDS011;63430;53.186;6.598;2024-01-30T06:40:04;2.55;;;2.30;;
52978;SDS011;63430;53.186;6.598;2024-01-30T06:42:08;2.60;;;2.40;;
52978;SDS011;63430;53.186;6.598;2024-01-30T06:44:11;2.50;;;2.30;;
52978;SDS011;63430;53.186;6.598;2024-01-30T06:46:16;2.70;;;2.50;;
52978;SDS011;63430;53.186;6.598;2024-01-30T06:48:19;2.67;;;2.47;;
52978;SDS011;63430;53.186;6.598;2024-01-30T06:50:21;2.60;;;2.40;;
52978;SDS011;63430;53.186;6.598;2024-01-30T06:52:24;2.70;;;2.50;;
52978;SDS011;63430;53.186;6.598;2024-01-30T06:54:27;2.78;;;2.55;;
52978;SDS011;63430;53.186;6.598;2024-01-30T06:56:29;2.50;;;2.30;;
52978;SDS011;63430;53.186;6.598;2024-01-30T06:58:32;2.47;;;2.28;;
52978;SDS011;63430;53.186;6.598;2024-01-30T07:00:35;2.80;;;2.47;;
52978;SDS011;63430;53.186;6.598;2024-01-30T07:02:40;3.28;;;2.35;;
52978;SDS011;63430;53.186;6.598;2024-01-30T07:04:43;2.30;;;2.10;;
52978;SDS011;63430;53.186;6.598;2024-01-30T07:06:48;2.58;;;2.38;;
52978;SDS011;63430;53.186;6.598;2024-01-30T07:08:50;2.97;;;2.60;;
52978;SDS011;63430;53.186;6.598;2024-01-30T07:10:53;2.65;;;2.45;;
52978;SDS011;63430;53.186;6.598;2024-01-30T07:13:01;2.78;;;2.50;;
52978;SDS011;63430;53.186;6.598;2024-01-30T07:15:04;2.58;;;2.38;;
52978;SDS011;63430;53.186;6.598;2024-01-30T07:17:09;2.80;;;2.60;;
52978;SDS011;63430;53.186;6.598;2024-01-30T07:19:14;2.60;;;2.40;;
52978;SDS011;63430;53.186;6.598;2024-01-30T07:21:18;2.50;;;2.30;;
52978;SDS011;63430;53.186;6.598;2024-01-30T07:23:21;2.60;;;2.40;;
52978;SDS011;63430;53.186;6.598;2024-01-30T07:25:25;2.58;;;2.38;;
52978;SDS011;63430;53.186;6.598;2024-01-30T07:27:32;2.30;;;2.10;;
52978;SDS011;63430;53.186;6.598;2024-01-30T07:29:35;2.78;;;2.58;;
52978;SDS011;63430;53.186;6.598;2024-01-30T07:31:39;2.67;;;2.47;;
52978;SDS011;63430;53.186;6.598;2024-01-30T07:33:43;2.55;;;2.30;;
52978;SDS011;63430;53.186;6.598;2024-01-30T07:35:52;2.60;;;2.40;;
52978;SDS011;63430;53.186;6.598;2024-01-30T07:37:55;2.58;;;2.38;;
52978;SDS011;63430;53.186;6.598;2024-01-30T07:39:59;2.58;;;2.38;;
52978;SDS011;63430;53.186;6.598;2024-01-30T07:42:03;3.22;;;2.42;;
52978;SDS011;63430;53.186;6.598;2024-01-30T07:44:09;2.72;;;2.53;;
52978;SDS011;63430;53.186;6.598;2024-01-30T07:46:12;2.80;;;2.60;;
52978;SDS011;63430;53.186;6.598;2024-01-30T07:48:15;2.40;;;2.10;;
52978;SDS011;63430;53.186;6.598;2024-01-30T07:50:17;2.63;;;2.42;;
52978;SDS011;63430;53.186;6.598;2024-01-30T07:52:23;2.83;;;2.58;;
52978;SDS011;63430;53.186;6.598;2024-01-30T07:54:26;2.65;;;2.33;;
52978;SDS011;63430;53.186;6.598;2024-01-30T07:56:31;2.05;;;1.92;;
52978;SDS011;63430;53.186;6.598;2024-01-30T07:58:33;2.60;;;2.40;;
52978;SDS011;63430;53.186;6.598;2024-01-30T08:00:36;2.28;;;2.08;;
52978;SDS011;63430;53.186;6.598;2024-01-30T08:02:39;2.45;;;2.25;;
52978;SDS011;63430;53.186;6.598;2024-01-30T08:04:42;2.70;;;2.50;;
52978;SDS011;63430;53.186;6.598;2024-01-30T08:06:44;2.47;;;2.28;;
52978;SDS011;63430;53.186;6.598;2024-01-30T08:08:50;2.63;;;2.40;;
52978;SDS011;63430;53.186;6.598;2024-01-30T08:10:54;2.33;;;2.13;;
52978;SDS011;63430;53.186;6.598;2024-01-30T08:12:57;2.90;;;2.30;;
52978;SDS011;63430;53.186;6.598;2024-01-30T08:14:59;2.83;;;2.10;;
52978;SDS011;63430;53.186;6.598;2024-01-30T08:17:02;2.92;;;2.17;;
52978;SDS011;63430;53.186;6.598;2024-01-30T08:19:05;2.60;;;2.40;;
52978;SDS011;63430;53.186;6.598;2024-01-30T08:21:07;2.38;;;2.17;;
52978;SDS011;63430;53.186;6.598;2024-01-30T08:23:10;2.33;;;2.13;;
52978;SDS011;63430;53.186;6.598;2024-01-30T08:25:15;2.50;;;2.30;;
52978;SDS011;63430;53.186;6.598;2024-01-30T08:27:18;2.60;;;2.40;;
52978;SDS011;63430;53.186;6.598;2024-01-30T08:29:21;2.60;;;2.40;;
52978;SDS011;63430;53.186;6.598;2024-01-30T08:31:23;2.38;;;2.17;;
52978;SDS011;63430;53.186;6.598;2024-01-30T08:33:29;2.38;;;2.17;;
52978;SDS011;63430;53.186;6.598;2024-01-30T08:35:32;2.95;;;2.30;;
52978;SDS011;63430;53.186;6.598;2024-01-30T08:37:35;2.40;;;2.20;;
52978;SDS011;63430;53.186;6.598;2024-01-30T08:39:38;2.20;;;2.00;;
52978;SDS011;63430;53.186;6.598;2024-01-30T08:41:44;2.55;;;2.35;;
52978;SDS011;63430;53.186;6.598;2024-01-30T08:43:46;2.40;;;2.20;;
52978;SDS011;63430;53.186;6.598;2024-01-30T08:45:49;2.85;;;2.47;;
52978;SDS011;63430;53.186;6.598;2024-01-30T08:47:53;2.38;;;2.17;;
52978;SDS011;63430;53.186;6.598;2024-01-30T08:49:56;2.33;;;2.13;;
52978;SDS011;63430;53.186;6.598;2024-01-30T08:52:00;2.47;;;2.28;;
52978;SDS011;63430;53.186;6.598;2024-01-30T08:54:04;2.42;;;2.22;;
52978;SDS011;63430;53.186;6.598;2024-01-30T08:56:07;2.35;;;2.15;;
52978;SDS011;63430;53.186;6.598;2024-01-30T08:58:13;2.40;;;2.20;;
52978;SDS011;63430;53.186;6.598;2024-01-30T09:00:18;2.30;;;2.10;;
52978;SDS011;63430;53.186;6.598;2024-01-30T09:02:21;2.40;;;2.20;;
52978;SDS011;63430;53.186;6.598;2024-01-30T09:04:25;2.40;;;2.20;;
52978;SDS011;63430;53.186;6.598;2024-01-30T09:06:28;2.35;;;2.15;;
52978;SDS011;63430;53.186;6.598;2024-01-30T09:08:31;2.28;;;2.08;;
52978;SDS011;63430;53.186;6.598;2024-01-30T09:10:35;2.65;;;2.45;;
52978;SDS011;63430;53.186;6.598;2024-01-30T09:12:38;2.47;;;2.28;;
52978;SDS011;63430;53.186;6.598;2024-01-30T09:14:44;2.63;;;2.40;;
52978;SDS011;63430;53.186;6.598;2024-01-30T09:16:47;2.03;;;1.90;;
52978;SDS011;63430;53.186;6.598;2024-01-30T09:18:51;2.30;;;2.03;;
52978;SDS011;63430;53.186;6.598;2024-01-30T09:20:55;2.30;;;2.10;;
52978;SDS011;63430;53.186;6.598;2024-01-30T09:22:58;2.40;;;2.20;;
52978;SDS011;63430;53.186;6.598;2024-01-30T09:25:01;2.47;;;2.28;;
52978;SDS011;63430;53.186;6.598;2024-01-30T09:27:04;2.13;;;2.03;;
52978;SDS011;63430;53.186;6.598;2024-01-30T09:29:06;2.20;;;1.83;;
52978;SDS011;63430;53.186;6.598;2024-01-30T09:31:12;2.20;;;2.00;;
52978;SDS011;63430;53.186;6.598;2024-01-30T09:33:14;2.50;;;2.30;;
52978;SDS011;63430;53.186;6.598;2024-01-30T09:35:17;2.25;;;2.05;;
52978;SDS011;63430;53.186;6.598;2024-01-30T09:37:19;2.33;;;2.13;;
52978;SDS011;63430;53.186;6.598;2024-01-30T09:39:24;2.30;;;2.10;;
52978;SDS011;63430;53.186;6.598;2024-01-30T09:41:27;2.15;;;1.95;;
52978;SDS011;63430;53.186;6.598;2024-01-30T09:43:32;2.40;;;2.10;;
52978;SDS011;63430;53.186;6.598;2024-01-30T09:45:36;2.38;;;2.17;;
52978;SDS011;63430;53.186;6.598;2024-01-30T09:47:43;2.30;;;2.10;;
52978;SDS011;63430;53.186;6.598;2024-01-30T09:49:46;2.45;;;1.90;;
52978;SDS011;63430;53.186;6.598;2024-01-30T09:51:50;2.50;;;2.30;;
52978;SDS011;63430;53.186;6.598;2024-01-30T09:53:55;2.30;;;2.10;;
52978;SDS011;63430;53.186;6.598;2024-01-30T09:55:58;2.20;;;2.00;;
52978;SDS011;63430;53.186;6.598;2024-01-30T09:58:02;2.10;;;1.90;;
52978;SDS011;63430;53.186;6.598;2024-01-30T10:00:05;2.15;;;1.90;;
52978;SDS011;63430;53.186;6.598;2024-01-30T10:02:14;2.33;;;2.13;;
52978;SDS011;63430;53.186;6.598;2024-01-30T10:04:20;2.30;;;2.10;;
52978;SDS011;63430;53.186;6.598;2024-01-30T10:06:24;1.98;;;1.88;;
52978;SDS011;63430;53.186;6.598;2024-01-30T10:08:27;2.00;;;1.83;;
52978;SDS011;63430;53.186;6.598;2024-01-30T10:10:31;2.00;;;1.80;;
52978;SDS011;63430;53.186;6.598;2024-01-30T10:12:34;2.00;;;1.90;;
52978;SDS011;63430;53.186;6.598;2024-01-30T10:14:37;2.22;;;2.03;;
52978;SDS011;63430;53.186;6.598;2024-01-30T10:16:40;2.22;;;2.03;;
52978;SDS011;63430;53.186;6.598;2024-01-30T10:18:43;2.30;;;2.10;;
52978;SDS011;63430;53.186;6.598;2024-01-30T10:20:48;2.83;;;2.20;;
52978;SDS011;63430;53.186;6.598;2024-01-30T10:22:51;2.10;;;1.90;;
52978;SDS011;63430;53.186;6.598;2024-01-30T10:24:54;2.17;;;1.98;;
52978;SDS011;63430;53.186;6.598;2024-01-30T10:26:57;2.10;;;1.90;;
52978;SDS011;63430;53.186;6.598;2024-01-30T10:29:01;2.15;;;1.92;;
52978;SDS011;63430;53.186;6.598;2024-01-30T10:31:05;2.78;;;2.03;;
52978;SDS011;63430;53.186;6.598;2024-01-30T10:33:09;2.30;;;2.08;;
52978;SDS011;63430;53.186;6.598;2024-01-30T10:35:12;2.25;;;1.98;;
52978;SDS011;63430;53.186;6.598;2024-01-30T10:37:18;2.35;;;2.15;;
52978;SDS011;63430;53.186;6.598;2024-01-30T10:39:24;2.15;;;1.95;;
52978;SDS011;63430;53.186;6.598;2024-01-30T10:41:30;2.90;;;1.90;;
52978;SDS011;63430;53.186;6.598;2024-01-30T10:43:36;2.40;;;2.20;;
52978;SDS011;63430;53.186;6.598;2024-01-30T10:45:44;1.95;;;1.80;;
52978;SDS011;63430;53.186;6.598;2024-01-30T10:47:53;2.20;;;2.00;;
52978;SDS011;63430;53.186;6.598;2024-01-30T10:50:00;2.33;;;2.00;;
52978;SDS011;63430;53.186;6.598;2024-01-30T10:52:05;2.20;;;2.00;;
52978;SDS011;63430;53.186;6.598;2024-01-30T10:54:11;2.22;;;1.90;;
52978;SDS011;63430;53.186;6.598;2024-01-30T10:56:15;2.00;;;1.90;;
52978;SDS011;63430;53.186;6.598;2024-01-30T10:58:19;2.22;;;2.00;;
52978;SDS011;63430;53.186;6.598;2024-01-30T11:00:24;2.25;;;2.05;;
52978;SDS011;63430;53.186;6.598;2024-01-30T11:02:28;2.20;;;2.00;;
52978;SDS011;63430;53.186;6.598;2024-01-30T11:04:36;2.40;;;2.20;;
52978;SDS011;63430;53.186;6.598;2024-01-30T11:06:40;2.60;;;2.05;;
52978;SDS011;63430;53.186;6.598;2024-01-30T11:08:45;2.30;;;2.10;;
52978;SDS011;63430;53.186;6.598;2024-01-30T11:10:54;2.83;;;2.00;;
52978;SDS011;63430;53.186;6.598;2024-01-30T11:12:59;2.20;;;1.98;;
52978;SDS011;63430;53.186;6.598;2024-01-30T11:15:13;1.92;;;1.73;;
52978;SDS011;63430;53.186;6.598;2024-01-30T11:17:17;2.10;;;1.90;;
52978;SDS011;63430;53.186;6.598;2024-01-30T11:19:23;2.13;;;1.90;;
52978;SDS011;63430;53.186;6.598;2024-01-30T11:21:28;2.22;;;2.03;;
52978;SDS011;63430;53.186;6.598;2024-01-30T11:23:33;2.10;;;1.90;;
52978;SDS011;63430;53.186;6.598;2024-01-30T11:25:36;2.30;;;2.08;;
52978;SDS011;63430;53.186;6.598;2024-01-30T11:27:43;2.47;;;2.28;;
52978;SDS011;63430;53.186;6.598;2024-01-30T11:29:49;2.28;;;2.08;;
52978;SDS011;63430;53.186;6.598;2024-01-30T11:31:54;1.88;;;1.77;;
52978;SDS011;63430;53.186;6.598;2024-01-30T11:33:58;2.03;;;1.88;;
52978;SDS011;63430;53.186;6.598;2024-01-30T11:36:01;2.22;;;1.92;;
52978;SDS011;63430;53.186;6.598;2024-01-30T11:38:10;1.80;;;1.65;;
52978;SDS011;63430;53.186;6.598;2024-01-30T11:40:15;1.80;;;1.70;;
52978;SDS011;63430;53.186;6.598;2024-01-30T11:42:19;1.90;;;1.70;;
52978;SDS011;63430;53.186;6.598;2024-01-30T11:44:26;2.47;;;1.90;;
52978;SDS011;63430;53.186;6.598;2024-01-30T11:46:29;2.90;;;2.17;;
52978;SDS011;63430;53.186;6.598;2024-01-30T11:48:33;2.30;;;2.10;;
52978;SDS011;63430;53.186;6.598;2024-01-30T11:50:37;1.55;;;1.38;;
52978;SDS011;63430;53.186;6.598;2024-01-30T11:52:41;1.90;;;1.67;;
52978;SDS011;63430;53.186;6.598;2024-01-30T11:54:45;1.95;;;1.60;;
52978;SDS011;63430;53.186;6.598;2024-01-30T11:56:49;1.70;;;1.60;;
52978;SDS011;63430;53.186;6.598;2024-01-30T11:58:52;1.45;;;1.35;;
52978;SDS011;63430;53.186;6.598;2024-01-30T12:00:58;1.73;;;1.63;;
52978;SDS011;63430;53.186;6.598;2024-01-30T12:03:02;1.50;;;1.40;;
52978;SDS011;63430;53.186;6.598;2024-01-30T12:05:08;1.90;;;1.33;;
52978;SDS011;63430;53.186;6.598;2024-01-30T12:07:11;1.55;;;1.08;;
52978;SDS011;63430;53.186;6.598;2024-01-30T12:09:18;1.35;;;1.20;;
52978;SDS011;63430;53.186;6.598;2024-01-30T12:11:21;1.20;;;1.08;;
52978;SDS011;63430;53.186;6.598;2024-01-30T12:13:25;1.20;;;1.10;;
52978;SDS011;63430;53.186;6.598;2024-01-30T12:15:34;1.27;;;1.17;;
52978;SDS011;63430;53.186;6.598;2024-01-30T12:17:40;1.20;;;1.10;;
52978;SDS011;63430;53.186;6.598;2024-01-30T12:19:44;1.30;;;0.93;;
52978;SDS011;63430;53.186;6.598;2024-01-30T12:21:47;1.40;;;0.90;;
52978;SDS011;63430;53.186;6.598;2024-01-30T12:26:00;1.17;;;0.70;;
52978;SDS011;63430;53.186;6.598;2024-01-30T12:28:05;1.15;;;0.70;;
52978;SDS011;63430;53.186;6.598;2024-01-30T12:30:09;0.82;;;0.70;;